BOX109 EKCH-EDDP
Flight info
| Callsign | BOX109 |
|---|---|
| Flight time | N/A |
| Altitude | 31000 |
| Route | SALLO M736 BAKDO/N0474F290 M736 INDOK/N0464F370 M736 MAG/N0473F300 Z20 KENIG/N0430F230 T959 KOJEC KOJEC1R |
| Aircraft | A339/H-SADE1E2E3GHIJ3J5M1P2RWXY/LB2D1 |
Departure
| Time | 2026-05-01 12:39 |
|---|---|
| Airport | Copenhagen Kastrup Airport (EKCH) |
Arrival
| Time | N/A |
|---|---|
| Airport | Leipzig/Halle Airport (EDDP) |
| Time | Latitude | Longitude | Altitude | Speed | Heading |
|---|---|---|---|---|---|
| 2026-05-01 12:11 | 55.61798 | 12.67174 | 29 ft | 0 kts | 79° |
| 2026-05-01 12:12 | 55.61794 | 12.67139 | 30 ft | 0 kts | 79° |
| 2026-05-01 12:24 | 55.61793 | 12.67132 | 30 ft | 3 kts | 79° |
| 2026-05-01 12:24 | 55.61789 | 12.67088 | 30 ft | 4 kts | 94° |
| 2026-05-01 12:24 | 55.61792 | 12.67043 | 29 ft | 4 kts | 116° |
| 2026-05-01 12:24 | 55.61804 | 12.67006 | 28 ft | 4 kts | 149° |
| 2026-05-01 12:25 | 55.61819 | 12.66991 | 28 ft | 0 kts | 169° |
| 2026-05-01 12:28 | 55.61818 | 12.66991 | 30 ft | 1 kts | 169° |
| 2026-05-01 12:29 | 55.61787 | 12.67002 | 30 ft | 8 kts | 169° |
| 2026-05-01 12:29 | 55.61728 | 12.67023 | 30 ft | 10 kts | 169° |
| 2026-05-01 12:29 | 55.61575 | 12.67075 | 30 ft | 13 kts | 169° |
| 2026-05-01 12:30 | 55.61367 | 12.67125 | 30 ft | 16 kts | 186° |
| 2026-05-01 12:30 | 55.61281 | 12.67023 | 31 ft | 14 kts | 253° |
| 2026-05-01 12:30 | 55.61323 | 12.66873 | 30 ft | 15 kts | 303° |
| 2026-05-01 12:31 | 55.61359 | 12.66777 | 30 ft | 0 kts | 303° |
| 2026-05-01 12:32 | 55.61379 | 12.66722 | 31 ft | 14 kts | 303° |
| 2026-05-01 12:32 | 55.61446 | 12.66538 | 29 ft | 20 kts | 302° |
| 2026-05-01 12:33 | 55.61522 | 12.66330 | 29 ft | 22 kts | 303° |
| 2026-05-01 12:33 | 55.61618 | 12.66074 | 32 ft | 26 kts | 303° |
| 2026-05-01 12:33 | 55.61706 | 12.65835 | 32 ft | 12 kts | 302° |
| 2026-05-01 12:33 | 55.61716 | 12.65808 | 32 ft | 0 kts | 302° |
| 2026-05-01 12:35 | 55.61750 | 12.65714 | 31 ft | 25 kts | 303° |
| 2026-05-01 12:35 | 55.61851 | 12.65445 | 28 ft | 27 kts | 304° |
| 2026-05-01 12:36 | 55.61950 | 12.65175 | 28 ft | 25 kts | 302° |
| 2026-05-01 12:36 | 55.62044 | 12.64919 | 30 ft | 24 kts | 307° |
| 2026-05-01 12:36 | 55.62111 | 12.64679 | 30 ft | 18 kts | 262° |
| 2026-05-01 12:36 | 55.62032 | 12.64557 | 29 ft | 16 kts | 212° |
| 2026-05-01 12:37 | 55.61959 | 12.64427 | 30 ft | 15 kts | 254° |
| 2026-05-01 12:37 | 55.61939 | 12.64240 | 30 ft | 16 kts | 259° |
| 2026-05-01 12:37 | 55.61884 | 12.64083 | 30 ft | 15 kts | 207° |
| 2026-05-01 12:37 | 55.61775 | 12.64079 | 30 ft | 16 kts | 174° |
| 2026-05-01 12:38 | 55.61664 | 12.64089 | 32 ft | 15 kts | 184° |
| 2026-05-01 12:38 | 55.61576 | 12.63994 | 32 ft | 16 kts | 221° |
| 2026-05-01 12:38 | 55.61417 | 12.63746 | 30 ft | 65 kts | 221° |
| 2026-05-01 12:38 | 55.60870 | 12.62901 | 31 ft | 141 kts | 220° |
| 2026-05-01 12:39 | 55.60025 | 12.61569 | 358 ft | 168 kts | 224° |
| 2026-05-01 12:39 | 55.59163 | 12.60192 | 1208 ft | 166 kts | 221° |
| 2026-05-01 12:39 | 55.58264 | 12.58828 | 1883 ft | 179 kts | 221° |
| 2026-05-01 12:39 | 55.57269 | 12.57317 | 2398 ft | 198 kts | 221° |
| 2026-05-01 12:40 | 55.56132 | 12.55665 | 2868 ft | 220 kts | 212° |
| 2026-05-01 12:40 | 55.54659 | 12.54625 | 3372 ft | 239 kts | 198° |
| 2026-05-01 12:40 | 55.53020 | 12.53694 | 3792 ft | 258 kts | 198° |
| 2026-05-01 12:40 | 55.51279 | 12.52701 | 4401 ft | 264 kts | 198° |
| 2026-05-01 12:41 | 55.49523 | 12.51688 | 5133 ft | 267 kts | 198° |
| 2026-05-01 12:41 | 55.47754 | 12.50658 | 5849 ft | 270 kts | 198° |
| 2026-05-01 12:41 | 55.45940 | 12.49731 | 6535 ft | 274 kts | 188° |
| 2026-05-01 12:41 | 55.44049 | 12.49998 | 7248 ft | 277 kts | 162° |
| 2026-05-01 12:42 | 55.42387 | 12.51699 | 7952 ft | 280 kts | 136° |
| 2026-05-01 12:42 | 55.41289 | 12.54526 | 8649 ft | 284 kts | 111° |
| 2026-05-01 12:42 | 55.40738 | 12.57870 | 9341 ft | 287 kts | 102° |
| 2026-05-01 12:42 | 55.40315 | 12.61318 | 10034 ft | 290 kts | 102° |
| 2026-05-01 12:43 | 55.39855 | 12.64837 | 10444 ft | 305 kts | 103° |
| 2026-05-01 12:43 | 55.39296 | 12.68574 | 10636 ft | 325 kts | 105° |
| 2026-05-01 12:43 | 55.38653 | 12.72490 | 10948 ft | 340 kts | 106° |
| 2026-05-01 12:43 | 55.37969 | 12.76486 | 11568 ft | 343 kts | 107° |
| 2026-05-01 12:44 | 55.37272 | 12.80502 | 12189 ft | 346 kts | 107° |
| 2026-05-01 12:44 | 55.36575 | 12.84509 | 12787 ft | 349 kts | 107° |
| 2026-05-01 12:44 | 55.35133 | 12.92796 | 13982 ft | 355 kts | 107° |
| 2026-05-01 12:45 | 55.33285 | 13.00808 | 15080 ft | 361 kts | 127° |
| 2026-05-01 12:45 | 55.31452 | 13.03894 | 15649 ft | 363 kts | 146° |
| 2026-05-01 12:45 | 55.29220 | 13.05997 | 16172 ft | 366 kts | 154° |
| 2026-05-01 12:46 | 55.26916 | 13.07943 | 16709 ft | 369 kts | 154° |
| 2026-05-01 12:46 | 55.24591 | 13.09908 | 17231 ft | 372 kts | 154° |
| 2026-05-01 12:46 | 55.22262 | 13.11909 | 17755 ft | 375 kts | 154° |
| 2026-05-01 12:46 | 55.19947 | 13.13924 | 18259 ft | 378 kts | 154° |
| 2026-05-01 12:47 | 55.17587 | 13.15993 | 18777 ft | 381 kts | 153° |
| 2026-05-01 12:47 | 55.15211 | 13.18079 | 19279 ft | 384 kts | 153° |
| 2026-05-01 12:47 | 55.12818 | 13.20180 | 19777 ft | 387 kts | 153° |
| 2026-05-01 12:47 | 55.10405 | 13.22295 | 20272 ft | 389 kts | 153° |
| 2026-05-01 12:48 | 55.07974 | 13.24421 | 20762 ft | 392 kts | 153° |
| 2026-05-01 12:48 | 55.05522 | 13.26563 | 21250 ft | 395 kts | 154° |
| 2026-05-01 12:48 | 55.03054 | 13.28716 | 21731 ft | 398 kts | 154° |
| 2026-05-01 12:48 | 55.00566 | 13.30883 | 22194 ft | 401 kts | 154° |
| 2026-05-01 12:49 | 54.98059 | 13.33064 | 22687 ft | 404 kts | 154° |
| 2026-05-01 12:49 | 54.95535 | 13.35254 | 23141 ft | 407 kts | 154° |
| 2026-05-01 12:49 | 54.92880 | 13.36942 | 23559 ft | 409 kts | 168° |
| 2026-05-01 12:49 | 54.90042 | 13.37390 | 24020 ft | 411 kts | 183° |
| 2026-05-01 12:50 | 54.87217 | 13.36566 | 24466 ft | 413 kts | 196° |
| 2026-05-01 12:50 | 54.84469 | 13.35024 | 24890 ft | 416 kts | 199° |
| 2026-05-01 12:50 | 54.81720 | 13.33365 | 25320 ft | 419 kts | 199° |
| 2026-05-01 12:50 | 54.78954 | 13.31729 | 25745 ft | 422 kts | 199° |
| 2026-05-01 12:51 | 54.76154 | 13.30131 | 26159 ft | 425 kts | 198° |
| 2026-05-01 12:51 | 54.73334 | 13.28566 | 26566 ft | 427 kts | 198° |
| 2026-05-01 12:51 | 54.69525 | 13.26485 | 27087 ft | 431 kts | 198° |